• Join FlightAware (Why Join?)
  • Login
  • US Flag 
03:43PM EDT


 

Airport Tracker/Info


-or-


 

Live Flight TrackerFlight Track Log ✈ LAN2531 ✈ 09-May-2013 ✈ KJFK - SPIM / LIM

Flight Track Log - Related Links

Times and Time Zones

All times are in EDT time to prevent confusion due to time zone crossing. See the LAN2531 flight status page for this flight to view local times or setup timezone preferences in your user account.

Time Position Orientation Groundspeed Altitude Reporting Facility
EDT Latitude Longitude Course Direction KTS MPH feet Rate Location/Type
12:25AM 40.6000 -73.8000 191° South 182 209 1,400  Level New York TRACON
12:26AM 40.5333 -73.8167 191° South 248 285 3,600 2,400 Climbing New York TRACON
12:28AM 40.4889 -73.6636 111° Southeast 252 290 8,400 2,460 Climbing New York Center
12:29AM 40.4367 -73.5822 130° Southeast 274 315 10,700 1,800 Climbing New York Center
12:30AM 40.3508 -73.5053 146° Southeast 321 369 12,100 1,980 Climbing New York Center
12:31AM 40.2569 -73.4200 145° Southeast 373 429 14,700 2,340 Climbing New York Center
12:33AM 40.0114 -73.3567 169° South 390 449 20,200 2,160 Climbing Washington Center
12:34AM 39.9194 -73.4517 218° Southwest 369 425 22,000 1,800 Climbing Washington Center
12:35AM 39.8275 -73.5572 221° Southwest 410 472 23,800 1,800 Climbing Washington Center
12:36AM 39.7247 -73.6517 215° Southwest 436 502 25,600 1,740 Climbing Washington Center
12:37AM 39.6075 -73.7383 210° Southwest 463 533 27,300 1,860 Climbing Washington Center
12:38AM 39.4964 -73.8300 212° Southwest 478 550 29,400 1,920 Climbing Washington Center
12:39AM 39.3869 -73.9161 211° Southwest 478 550 31,200 1,200 Climbing Washington Center
12:40AM 39.2778 -74.0042 212° Southwest 473 544 31,900 300 Climbing Washington Center
12:41AM 39.1683 -74.0869 210° Southwest 473 544 31,900  Level Washington Center
12:42AM 39.0592 -74.1775 213° Southwest 473 544 32,000  Climbing Washington Center
12:43AM 38.9536 -74.2597 211° Southwest 468 539 32,000 -60 Level Washington Center
12:44AM 38.8461 -74.3417 211° Southwest 461 531 31,900 -60 Descending Washington Center
12:45AM 38.7367 -74.4258 211° Southwest 461 531 31,900  Level Washington Center
12:46AM 38.6289 -74.5128 212° Southwest 461 531 32,000  Climbing Washington Center
12:47AM 38.5192 -74.5967 211° Southwest 461 531 31,900  Descending Washington Center
12:48AM 38.4094 -74.6750 209° Southwest 461 531 32,000  Climbing Washington Center
12:49AM 38.3017 -74.7664 214° Southwest 466 536 32,000  Level Washington Center
12:50AM 38.1917 -74.8494 211° Southwest 466 536 32,000 -60 Level Washington Center
12:51AM 38.0794 -74.9322 210° Southwest 471 542 31,900 -60 Descending Washington Center
12:52AM 37.9672 -75.0175 211° Southwest 471 542 31,900  Level Washington Center
12:53AM 37.8531 -75.1053 211° Southwest 471 542 32,000  Climbing Washington Center
12:54AM 37.7386 -75.1900 210° Southwest 471 542 31,900  Descending Washington Center
12:55AM 37.6222 -75.2772 211° Southwest 477 549 32,000  Climbing Washington Center
12:56AM 37.5097 -75.3614 211° Southwest 477 549 32,000  Level Washington Center
12:57AM 37.3950 -75.4481 211° Southwest 482 555 32,000  Level Washington Center
12:58AM 37.2806 -75.5319 210° Southwest 482 555 32,000  Level Washington Center
12:59AM 37.1658 -75.6153 210° Southwest 487 560 32,000 -60 Level Washington Center
01:00AM 37.0508 -75.6986 210° Southwest 487 560 31,900 -60 Descending Washington Center
01:01AM 36.9342 -75.7842 210° Southwest 487 560 31,900  Level Washington Center
01:02AM 36.8067 -75.8722 209° Southwest 487 560 32,000  Climbing Washington Center
01:03AM 36.6917 -75.9572 211° Southwest 487 560 32,000 -60 Level Washington Center
01:04AM 36.5786 -76.0419 211° Southwest 487 560 31,900 -60 Descending Washington Center
01:05AM 36.4636 -76.1239 210° Southwest 487 560 31,900  Level Washington Center
01:06AM 36.3486 -76.2031 209° Southwest 487 560 31,900  Level Washington Center
01:07AM 36.2189 -76.2536 197° South 482 555 32,000  Climbing Washington Center
01:08AM 36.0872 -76.2989 196° South 488 562 32,000  Level Washington Center
01:09AM 35.9533 -76.3411 194° South 493 567 32,000  Level Washington Center
01:10AM 35.8239 -76.3836 195° South 493 567 32,000 -60 Level Washington Center
01:11AM 35.6900 -76.4333 197° South 499 574 31,900  Descending Washington Center
01:12AM 35.5603 -76.4756 195° South 494 568 32,000  Climbing Washington Center
01:13AM 35.4283 -76.5200 195° South 494 568 32,000  Level Washington Center
01:14AM 35.3114 -76.5594 195° South 494 568 32,000  Level Washington Center
01:15AM 35.1817 -76.6008 195° South 488 562 32,000 -60 Level Washington Center
01:17AM 34.9681 -76.6744 196° South 488 562 31,900  Descending Washington Center
01:18AM 34.8406 -76.7183 196° South 483 556 32,000  Climbing Washington Center
01:19AM 34.7108 -76.7569 194° South 483 556 32,000  Level Washington Center
01:20AM 34.5831 -76.8006 196° South 478 550 32,000  Level Washington Center
01:21AM 34.4553 -76.8414 195° South 478 550 32,000  Level Washington Center
01:22AM 34.3275 -76.8822 195° South 478 550 32,000  Level Washington Center
01:23AM 34.2000 -76.9228 195° South 478 550 32,000  Level Washington Center
01:24AM 34.0722 -76.9633 195° South 478 550 32,000  Level Washington Center
01:25AM 33.9297 -77.0111 196° South 478 550 32,000  Level Washington Center
01:26AM 33.8019 -77.0514 195° South 478 550 32,000  Level Washington Center
01:27AM 33.6764 -77.0917 195° South 478 550 32,000  Level Washington Center
01:29AM 33.4497 -77.1625 195° South 472 543 32,000  Level Jacksonville Center
01:30AM 33.3222 -77.2056 196° South 467 537 32,000 -60 Level Jacksonville Center
01:31AM 33.1967 -77.2458 195° South 467 537 31,900 -60 Descending Jacksonville Center
01:32AM 33.0753 -77.2833 195° South 467 537 31,900  Level Jacksonville Center
01:33AM 32.9497 -77.3233 195° South 467 537 32,000  Climbing Jacksonville Center
01:34AM 32.8264 -77.3631 195° South 467 537 32,000  Level Jacksonville Center
01:35AM 32.7028 -77.4003 194° South 467 537 32,000  Level Jacksonville Center
01:36AM 32.5769 -77.4375 194° South 467 537 32,000  Level Jacksonville Center
01:37AM 32.4517 -77.4794 196° South 467 537 32,000  Level Jacksonville Center
01:38AM 32.3278 -77.5164 194° South 467 537 32,000  Level Jacksonville Center
01:39AM 32.2022 -77.5556 195° South 467 537 32,000 -60 Level Jacksonville Center
01:40AM 32.0767 -77.5947 195° South 467 537 31,900  Descending Jacksonville Center
01:41AM 31.9508 -77.6339 195° South 472 543 32,000  Climbing Jacksonville Center
01:42AM 31.8233 -77.6753 195° South 472 543 32,000  Level Jacksonville Center
01:43AM 31.6972 -77.7067 192° South 472 543 32,000  Level Jacksonville Center
01:44AM 31.5694 -77.7456 195° South 472 543 32,000 -60 Level Jacksonville Center
01:45AM 31.4439 -77.7939 198° South 472 543 31,900  Descending Jacksonville Center
01:46AM 31.3178 -77.8250 192° South 472 543 32,000  Climbing Jacksonville Center
01:47AM 31.1900 -77.8611 194° South 472 543 32,000 -60 Level Jacksonville Center
01:48AM 31.0639 -77.8944 193° South 467 537 31,900  Descending Jacksonville Center
01:49AM 30.9383 -77.9375 196° South 467 537 32,000  Climbing Jacksonville Center
01:50AM 30.8106 -77.9828 197° South 467 537 32,000 -60 Level Jacksonville Center
01:51AM 30.6297 -78.0414 196° South 467 537 31,900  Descending Miami Center
01:53AM 30.4900 -78.0758 192° South 471 542 32,000  Climbing Miami Center
01:53AM 30.3708 -78.1083 193° South 470 541 32,000  Level Miami Center
01:54AM 30.2350 -78.1283 187° South 476 548 32,000 -60 Level Miami Center
01:55AM 30.1097 -78.1508 189° South 470 541 31,900 -60 Descending Miami Center
01:57AM 29.9867 -78.1781 191° South 471 542 31,900  Level Miami Center
01:57AM 29.8508 -78.1908 185° South 471 542 32,000  Climbing Miami Center
01:58AM 29.7236 -78.2156 190° South 476 548 32,000 -60 Level Miami Center
01:59AM 29.5897 -78.2328 186° South 476 548 31,900 -60 Descending Miami Center
02:00AM 29.4686 -78.2600 191° South 476 548 31,900  Level Miami Center
02:01AM 29.3328 -78.2772 186° South 470 541 32,000  Climbing Miami Center
02:02AM 29.2033 -78.2969 188° South 475 547 32,000  Level Miami Center
02:03AM 29.0736 -78.3167 188° South 475 547 32,000  Level Miami Center
02:04AM 28.9422 -78.3339 187° South 470 541 32,000  Level Miami Center
02:05AM 28.8147 -78.3558 189° South 475 547 32,000 -60 Level Miami Center
02:06AM 28.6808 -78.3756 187° South 482 555 31,900  Descending Miami Center
02:07AM 28.5594 -78.3950 188° South 476 548 32,000  Climbing Miami Center
02:08AM 28.4236 -78.4167 188° South 471 542 32,000  Level Miami Center
02:09AM 28.2983 -78.4364 188° South 471 542 32,000  Level Miami Center
02:10AM 28.1706 -78.4558 188° South 471 542 32,000  Level Miami Center
02:12AM 28.0264 -78.4772 187° South 464 534 32,000  Level Miami Center
02:13AM 27.9008 -78.4967 188° South 464 534 32,000  Level Miami Center
02:14AM 27.7628 -78.5181 188° South 479 551 32,000 -60 Level Miami Center
02:14AM 27.6331 -78.5397 188° South 486 559 31,900 -60 Descending Miami Center
02:16AM 27.5056 -78.5564 187° South 486 559 31,900  Level Miami Center
02:16AM 27.3736 -78.5756 187° South 486 559 31,900  Level Miami Center
02:17AM 27.2419 -78.6017 190° South 481 554 32,000  Climbing Miami Center
02:18AM 27.1222 -78.6558 202° Southwest 464 534 32,000  Level Miami Center
02:19AM 27.0086 -78.7103 203° Southwest 459 528 32,000 -60 Level Miami Center
02:20AM 26.8847 -78.7572 199° South 459 528 31,900 -60 Descending Miami Center
02:21AM 26.7467 -78.7758 187° South 491 565 31,900  Level Miami Center
02:22AM 26.6189 -78.7969 188° South 484 557 32,000  Climbing Miami Center
02:24AM 26.4872 -78.8158 187° South 490 564 32,000  Level Miami Center
02:24AM 26.3469 -78.8272 184° South 490 564 32,000 -60 Level Miami Center
02:25AM 26.2111 -78.8436 186° South 490 564 31,900 -60 Descending Miami Center
02:26AM 26.0917 -78.8603 187° South 496 571 31,900  Level Miami Center
02:27AM 25.9536 -78.8808 188° South 501 577 32,000  Climbing Miami Center
02:28AM 25.8133 -78.8925 184° South 506 582 32,000  Level Miami Center
02:29AM 25.6711 -78.9086 186° South 506 582 32,000  Level Miami Center
02:30AM 25.5308 -78.9200 184° South 506 582 32,000  Level Miami Center
02:31AM 25.3864 -78.9358 186° South 511 588 32,000  Level Miami Center
02:32AM 25.2464 -78.9497 185° South 511 588 32,000  Level Miami Center
02:33AM 25.1061 -78.9564 182° South 511 588 32,000  Level Miami Center
02:34AM 24.9703 -78.9700 185° South 511 588 32,000 -60 Level Miami Center
02:35AM 24.8278 -78.9861 186° South 511 588 31,900 -60 Descending Miami Center
02:36AM 24.6919 -78.9975 184° South 503 579 31,900  Level Miami Center
02:38AM 24.5889 -79.0300 196° South 503 579 32,000 60 Climbing Miami Center
02:38AM 24.4175 -79.0314 180° South 503 579 32,100 480 Climbing Miami Center
02:40AM 24.2836 -79.0428 184° South 503 579 33,000 420 Climbing Miami Center
02:40AM 24.1436 -79.0542 184° South 497 572 33,000  Level Miami Center
02:42AM 24.0139 -79.0722 187° South 487 560 33,000  Level Miami Center
02:43AM 23.8820 -79.0606 177° South  Level FlightAware Approximate
02:43AM 23.8736 -79.0744 177° South 487 560 33,000  Level Miami Center
02:43AM 23.7356 -79.0856 184° South 492 566 33,000  Level Miami Center
02:45AM 23.6017 -79.1036 187° South 498 573 33,000  Level Miami Center
02:45AM 23.4717 -79.1264 176° South 493 567 33,000  Level Miami Center
02:46AM 23.4734 -79.0942 176° South  Level FlightAware Approximate
02:46AM 23.3339 -79.1283 181° South 493 567 33,000  Level Miami Center
02:47AM 23.1961 -79.1258 179° South 493 567 33,000  Level Miami Center
02:48AM 23.0642 -79.1328 183° South 493 567 33,000  Level Miami Center
02:49AM 22.9283 -79.1347 181° South 493 567 33,000  Level Miami Center
02:50AM 22.7844 -79.1256 177° South 500 575 33,000  Level Miami Center
02:51AM 22.6508 -79.1278 181° South 500 575 33,000  Level Miami Center
02:52AM 22.5169 -79.1367 184° South 500 575 33,000  Level Miami Center
02:53AM 22.3769 -79.1319 178° South 493 567 33,000  Level Miami Center
02:54AM 22.2411 -79.1364 182° South 498 573 33,000  Level Miami Center
02:55AM 22.1014 -79.1317 178° South 492 566 33,000  Level Miami Center
02:56AM 21.9531 -79.1336 181° South 497 572 33,000  Level Miami Center
02:57AM 21.8233 -79.1381 182° South 488 562 33,000  Level Miami Center
02:58AM 21.6753 -79.1333 178° South 501 577 33,000  Level Miami Center
02:59AM 21.5458 -79.1358 181° South 494 568 33,000  Level Miami Center
03:00AM 21.4331 -79.1339 179° South 489 563 33,000  Level Miami Center
03:01AM 21.2722 -79.1333 180° South 489 563 33,000  Level Miami Center
03:02AM 21.1364 -79.1378 182° South 491 565 33,000  Level Miami Center
03:03AM 21.0069 -79.1467 184° South 491 565 33,000  Level Miami Center
03:04AM 20.8817 -79.1469 180° South 491 565 33,000  Level Miami Center
03:05AM 20.7461 -79.1511 182° South 491 565 33,000  Level Miami Center
03:06AM 20.6375 -79.1539 181° South 491 565 33,000  Level Miami Center
03:07AM 20.6375 -79.1539 90° East 491 565 33,000  Level Miami Center
03:09AM 20.6375 -79.1539 90° East 491 565 33,000  Level Miami Center
03:11AM 20.6375 -79.1539 90° East 491 565 33,000  Level Miami Center
03:13AM 20.6375 -79.1539 90° East 491 565 33,000  Level Miami Center
03:15AM 20.6375 -79.1539 90° East 491 565 33,000  Level Miami Center
03:18AM 20.6375 -79.1539 90° East 491 565 33,000  Level Miami Center
03:19AM 20.6375 -79.1539 90° East 491 565 33,000  Level Miami Center
03:21AM 20.6375 -79.1539 90° East 491 565 33,000  Level Miami Center
03:23AM 20.6375 -79.1539 90° East 491 565 33,000  Level Miami Center
03:25AM 20.6375 -79.1539 90° East 491 565 33,000  Level Miami Center
03:27AM 20.6375 -79.1539 90° East 491 565 33,000  Level Miami Center
03:29AM 20.6375 -79.1539 90° East 491 565 33,000  Level Miami Center
03:31AM 20.6375 -79.1539 90° East 491 565 33,000  Level Miami Center
03:33AM 20.6375 -79.1539 90° East 491 565 33,000  Level Miami Center
03:35AM 20.6375 -79.1539 90° East 491 565 33,000  Level Miami Center
03:37AM 20.6375 -79.1539 90° East 491 565 33,000  Level Miami Center
03:39AM 20.6375 -79.1539 90° East 491 565 33,000  Level Miami Center
03:41AM 20.6375 -79.1539 90° East 491 565 33,000  Level Miami Center
03:43AM 20.6375 -79.1539 90° East 491 565 33,000  Level Miami Center
03:45AM 20.6375 -79.1539 90° East 491 565 33,000  Level Miami Center
03:48AM 20.6375 -79.1539 90° East 491 565 33,000  Level Miami Center
03:49AM 20.6375 -79.1539 90° East 491 565 33,000  Level Miami Center
03:52AM 20.6375 -79.1539 90° East 491 565 33,000  Level Miami Center
03:53AM 20.6375 -79.1539 90° East 491 565 33,000  Level Miami Center
03:55AM 20.6375 -79.1539 90° East 491 565 33,000  Level Miami Center
03:57AM 20.6375 -79.1539 90° East 491 565 33,000  Level Miami Center
03:59AM 20.6375 -79.1539 90° East 491 565 33,000  Level Miami Center
04:01AM 20.6375 -79.1539 90° East 491 565 33,000  Level Miami Center
04:03AM 20.6375 -79.1539 90° East 491 565 33,000  Level Miami Center
04:05AM 20.6375 -79.1539 90° East 491 565 33,000  Level Miami Center
04:07AM 20.6375 -79.1539 90° East 491 565 33,000  Level Miami Center
04:09AM 20.6375 -79.1539 90° East 491 565 33,000  Level Miami Center
04:11AM 20.6375 -79.1539 90° East 491 565 33,000  Level Miami Center
04:13AM 20.6375 -79.1539 90° East 491 565 33,000  Level Miami Center
04:15AM 20.6375 -79.1539 90° East 491 565 33,000  Level Miami Center
04:17AM 20.6375 -79.1539 90° East 491 565 33,000  Level Miami Center
04:20AM 20.6375 -79.1539 90° East 491 565 33,000  Level Miami Center
04:21AM 20.6375 -79.1539 90° East 491 565 33,000  Level Miami Center
04:23AM 20.6375 -79.1539 90° East 491 565 33,000  Level Miami Center
04:26AM 20.6375 -79.1539 90° East 491 565 33,000  Level Miami Center
04:27AM 20.6375 -79.1539 90° East 491 565 33,000  Level Miami Center
04:29AM 20.6375 -79.1539 90° East 491 565 33,000  Level Miami Center
04:31AM 20.6375 -79.1539 90° East 491 565 33,000  Level Miami Center
04:33AM 20.6375 -79.1539 90° East 491 565 33,000  Level Miami Center
04:36AM 20.6375 -79.1539 90° East 491 565 33,000  Level Miami Center
04:37AM 20.6375 -79.1539 90° East 491 565 33,000  Level Miami Center
04:39AM 20.6375 -79.1539 90° East 491 565 33,000  Level Miami Center
04:41AM 20.6375 -79.1539 90° East 491 565 33,000  Level Miami Center
04:43AM 20.6375 -79.1539 90° East 491 565 33,000  Level Miami Center
04:45AM 20.6375 -79.1539 90° East 491 565 33,000  Level Miami Center
04:47AM 20.6375 -79.1539 90° East 491 565 33,000  Level Miami Center
04:49AM 20.6375 -79.1539 90° East 491 565 33,000  Level Miami Center
04:51AM 20.6375 -79.1539 90° East 491 565 33,000  Level Miami Center
04:53AM 20.6375 -79.1539 90° East 491 565 33,000  Level Miami Center
04:55AM 20.6375 -79.1539 90° East 491 565 33,000  Level Miami Center
04:57AM 20.6375 -79.1539 90° East 491 565 33,000  Level Miami Center
04:59AM 20.6375 -79.1539 90° East 491 565 33,000  Level Miami Center
05:01AM 20.6375 -79.1539 90° East 491 565 33,000  Level Miami Center
05:03AM 20.6375 -79.1539 90° East 491 565 33,000  Level Miami Center
05:05AM 20.6375 -79.1539 90° East 491 565 33,000  Level Miami Center
05:07AM 20.6375 -79.1539 90° East 491 565 33,000  Level Miami Center
05:10AM 20.6375 -79.1539 90° East 491 565 33,000  Level Miami Center
05:11AM 20.6375 -79.1539 90° East 491 565 33,000  Level Miami Center
05:13AM 20.6375 -79.1539 90° East 491 565 33,000  Level Miami Center
05:15AM 20.6375 -79.1539 90° East 491 565 33,000  Level Miami Center
05:17AM 20.6375 -79.1539 90° East 491 565 33,000  Level Miami Center
05:19AM 20.6375 -79.1539 90° East 491 565 33,000  Level Miami Center
05:21AM 20.6375 -79.1539 90° East 491 565 33,000  Level Miami Center
05:24AM 20.6375 -79.1539 90° East 491 565 33,000  Level Miami Center
05:25AM 20.6375 -79.1539 90° East 491 565 33,000  Level Miami Center
05:27AM 20.6375 -79.1539 90° East 491 565 33,000  Level Miami Center
05:29AM 20.6375 -79.1539 90° East 491 565 33,000  Level Miami Center
05:31AM 20.6375 -79.1539 90° East 491 565 33,000  Level Miami Center
05:33AM 20.6375 -79.1539 90° East 491 565 33,000  Level Miami Center
05:35AM 20.6375 -79.1539 90° East 491 565 33,000  Level Miami Center
05:37AM 20.6375 -79.1539 90° East 491 565 33,000  Level Miami Center
05:40AM 20.6375 -79.1539 90° East 491 565 33,000  Level Miami Center
05:41AM 20.6375 -79.1539 90° East 491 565 33,000  Level Miami Center
05:43AM 20.6375 -79.1539 90° East 491 565 33,000  Level Miami Center
05:46AM 20.6375 -79.1539 90° East 491 565 33,000  Level Miami Center
05:47AM 20.6375 -79.1539 90° East 491 565 33,000  Level Miami Center
05:49AM 20.6375 -79.1539 90° East 491 565 33,000  Level Miami Center
05:51AM 20.6375 -79.1539 90° East 491 565 33,000  Level Miami Center
05:53AM 20.6375 -79.1539 90° East 491 565 33,000  Level Miami Center
05:55AM 20.6375 -79.1539 90° East 491 565 33,000  Level Miami Center
05:57AM 20.6375 -79.1539 90° East 491 565 33,000  Level Miami Center
05:59AM 20.6375 -79.1539 90° East 491 565 33,000  Level Miami Center
06:01AM 20.6375 -79.1539 90° East 491 565 33,000  Level Miami Center
06:03AM 20.6375 -79.1539 90° East 491 565 33,000  Level Miami Center
06:05AM 20.6375 -79.1539 90° East 491 565 33,000  Level Miami Center
06:07AM 20.6375 -79.1539 90° East 491 565 33,000  Level Miami Center
06:09AM 20.6375 -79.1539 90° East 491 565 33,000  Level Miami Center
06:11AM 20.6375 -79.1539 90° East 491 565 33,000  Level Miami Center
06:13AM 20.6375 -79.1539 90° East 491 565 33,000  Level Miami Center
06:15AM 20.6375 -79.1539 90° East 491 565 33,000  Level Miami Center
06:18AM 20.6375 -79.1539 90° East 491 565 33,000  Level Miami Center
06:20AM 20.6375 -79.1539 90° East 491 565 33,000  Level Miami Center
06:22AM 20.6375 -79.1539 90° East 491 565 33,000  Level Miami Center
06:24AM 20.6375 -79.1539 90° East 491 565 33,000  Level Miami Center
06:26AM 20.6375 -79.1539 90° East 491 565 33,000  Level Miami Center
06:28AM 20.6375 -79.1539 90° East 491 565 33,000  Level Miami Center
06:30AM 20.6375 -79.1539 90° East 491 565 33,000  Level Miami Center
06:32AM 20.6375 -79.1539 90° East 491 565 33,000  Level Miami Center
06:34AM 20.6375 -79.1539 90° East 491 565 33,000  Level Miami Center
06:36AM 20.6375 -79.1539 90° East 491 565 33,000  Level Miami Center
06:38AM 20.6375 -79.1539 90° East 491 565 33,000  Level Miami Center
06:40AM 20.6375 -79.1539 90° East 491 565 33,000  Level Miami Center
06:42AM 20.6375 -79.1539 90° East 491 565 33,000  Level Miami Center
06:44AM 20.6375 -79.1539 90° East 491 565 33,000  Level Miami Center
06:46AM 20.6375 -79.1539 90° East 491 565 33,000  Level Miami Center
06:48AM 20.6375 -79.1539 90° East 491 565 33,000  Level Miami Center
06:50AM 20.6375 -79.1539 90° East 491 565 33,000  Level Miami Center
06:52AM 20.6375 -79.1539 90° East 491 565 33,000  Level Miami Center
06:54AM 20.6375 -79.1539 90° East 491 565 33,000  Level Miami Center
06:56AM 20.6375 -79.1539 90° East 491 565 33,000  Level Miami Center
06:58AM 20.6375 -79.1539 90° East 491 565 33,000  Level Miami Center
07:00AM 20.6375 -79.1539 90° East 491 565 33,000  Level Miami Center
07:02AM 20.6375 -79.1539 90° East 491 565 33,000  Level Miami Center
07:04AM 20.6375 -79.1539 90° East 491 565 33,000  Level Miami Center
07:06AM 20.6375 -79.1539 90° East 491 565 33,000  Level Miami Center
07:08AM 20.6375 -79.1539 90° East 491 565 33,000  Level Miami Center
07:10AM 20.6375 -79.1539 90° East 491 565 33,000  Level Miami Center
07:12AM 20.6375 -79.1539 90° East 491 565 33,000  Level Miami Center
07:14AM 20.6375 -79.1539 90° East 491 565 33,000  Level Miami Center
07:16AM 20.6375 -79.1539 90° East 491 565 33,000  Level Miami Center
07:18AM 20.6375 -79.1539 90° East 491 565 33,000  Level Miami Center
07:20AM 20.6375 -79.1539 90° East 491 565 33,000  Level Miami Center
07:22AM 20.6375 -79.1539 90° East 491 565 33,000  Level Miami Center
07:24AM 20.6375 -79.1539 90° East 491 565 33,000  Level Miami Center
07:26AM 20.6375 -79.1539 90° East 491 565 33,000  Level Miami Center
07:28AM 20.6375 -79.1539 90° East 491 565 33,000  Level Miami Center
07:30AM 20.6375 -79.1539 90° East 491 565 33,000  Level Miami Center
07:32AM 20.6375 -79.1539 90° East 491 565 33,000  Level Miami Center
07:34AM 20.6375 -79.1539 90° East 491 565 33,000  Level Miami Center
07:36AM 20.6375 -79.1539 90° East 491 565 33,000  Level Miami Center
07:38AM 20.6375 -79.1539 90° East 491 565 33,000  Level Miami Center
07:40AM 20.6375 -79.1539 90° East 491 565 33,000  Level Miami Center
07:42AM 20.6375 -79.1539 90° East 491 565 33,000  Level Miami Center
07:44AM 20.6375 -79.1539 90° East 491 565 33,000  Level Miami Center
07:46AM 20.6375 -79.1539 90° East 491 565 33,000  Level Miami Center
07:48AM 20.6375 -79.1539 90° East 491 565 33,000  Level Miami Center
07:50AM 20.6375 -79.1539 90° East 491 565 33,000  Level Miami Center
07:52AM 20.6375 -79.1539 90° East 491 565 33,000  Level Miami Center
07:54AM 20.6375 -79.1539 90° East 491 565 33,000  Level Miami Center
07:56AM 20.6375 -79.1539 90° East 491 565 33,000  Level Miami Center
07:58AM 20.6375 -79.1539 90° East 491 565 33,000  Level Miami Center
08:00AM 20.6375 -79.1539 90° East 491 565 33,000  Level Miami Center
08:02AM 20.6375 -79.1539 90° East 491 565 33,000  Level Miami Center
08:04AM 20.6375 -79.1539 90° East 491 565 33,000  Level Miami Center
08:06AM 20.6375 -79.1539 90° East 491 565 33,000  Level Miami Center
08:08AM 20.6375 -79.1539 90° East 491 565 33,000  Level Miami Center
08:10AM 20.6375 -79.1539 90° East 491 565 33,000  Level Miami Center
08:12AM 20.6375 -79.1539 90° East 491 565 33,000  Level Miami Center
08:14AM 20.6375 -79.1539 90° East 491 565 33,000  Level Miami Center
08:16AM 20.6375 -79.1539 90° East 491 565 33,000  Level Miami Center
08:18AM 20.6375 -79.1539 90° East 491 565 33,000  Level Miami Center
08:20AM 20.6375 -79.1539 90° East 491 565 33,000  Level Miami Center
08:22AM 20.6375 -79.1539 90° East 491 565 33,000  Level Miami Center
08:24AM 20.6375 -79.1539 90° East 491 565 33,000  Level Miami Center
08:26AM 20.6375 -79.1539 90° East 491 565 33,000  Level Miami Center
08:28AM 20.6375 -79.1539 90° East 491 565 33,000  Level Miami Center
08:30AM 20.6375 -79.1539 90° East 491 565 33,000  Level Miami Center
08:32AM 20.6375 -79.1539 90° East 491 565 33,000  Level Miami Center
08:34AM 20.6375 -79.1539 90° East 491 565 33,000  Level Miami Center
08:36AM 20.6375 -79.1539 90° East 491 565 33,000  Level Miami Center
08:38AM 20.6375 -79.1539 90° East 491 565 33,000  Level Miami Center
08:40AM 20.6375 -79.1539 90° East 491 565 33,000  Level Miami Center
08:42AM 20.6375 -79.1539 90° East 491 565 33,000  Level Miami Center
08:44AM 20.6375 -79.1539 90° East 491 565 33,000  Level Miami Center
08:46AM 20.6375 -79.1539 90° East 491 565 33,000  Level Miami Center
08:48AM 20.6375 -79.1539 90° East 491 565 33,000  Level Miami Center
08:50AM 20.6375 -79.1539 90° East 491 565 33,000  Level Miami Center
08:52AM 20.6375 -79.1539 90° East 491 565 33,000  Level Miami Center
08:54AM 20.6375 -79.1539 90° East 491 565 33,000  Level Miami Center
08:56AM 20.6375 -79.1539 90° East 491 565 33,000  Level Miami Center
08:58AM 20.6375 -79.1539 90° East 491 565 33,000  Level Miami Center
09:00AM 20.6375 -79.1539 90° East 491 565 33,000  Level Miami Center
09:02AM 20.6375 -79.1539 90° East 491 565 33,000  Level Miami Center
09:04AM 20.6375 -79.1539 90° East 491 565 33,000  Level Miami Center
09:06AM 20.6375 -79.1539 90° East 491 565 33,000  Level Miami Center
09:08AM 20.6375 -79.1539 90° East 491 565 33,000  Level Miami Center
09:10AM 20.6375 -79.1539 90° East 491 565 33,000  Level Miami Center
09:12AM 20.6375 -79.1539 90° East 491 565 33,000  Level Miami Center
09:14AM 20.6375 -79.1539 90° East 491 565 33,000  Level Miami Center
09:16AM 20.6375 -79.1539 90° East 491 565 33,000  Level Miami Center
09:18AM 20.6375 -79.1539 90° East 491 565 33,000  Level Miami Center
09:20AM 20.6375 -79.1539 90° East 491 565 33,000  Level Miami Center